sensor_id;sensor_type;location;lat;lon;timestamp;pressure;altitude;pressure_sealevel;temperature;humidity
50430;BME280;36359;41.556;-8.418;2022-11-15T00:01:54;99864.38;;;16.04;100.00
50430;BME280;36359;41.556;-8.418;2022-11-15T00:04:38;99873.91;;;15.87;100.00
50430;BME280;36359;41.556;-8.418;2022-11-15T00:07:23;99870.03;;;16.03;100.00
50430;BME280;36359;41.556;-8.418;2022-11-15T00:10:07;99869.09;;;15.89;100.00
50430;BME280;36359;41.556;-8.418;2022-11-15T00:12:51;99867.00;;;15.91;100.00
50430;BME280;36359;41.556;-8.418;2022-11-15T00:15:37;99861.84;;;16.03;100.00
50430;BME280;36359;41.556;-8.418;2022-11-15T00:18:21;99872.00;;;15.87;100.00
50430;BME280;36359;41.556;-8.418;2022-11-15T00:21:09;99872.84;;;15.88;100.00
50430;BME280;36359;41.556;-8.418;2022-11-15T00:23:54;99873.50;;;15.90;100.00
50430;BME280;36359;41.556;-8.418;2022-11-15T00:26:38;99878.31;;;15.88;100.00
50430;BME280;36359;41.556;-8.418;2022-11-15T00:29:23;99878.31;;;15.88;100.00
50430;BME280;36359;41.556;-8.418;2022-11-15T00:32:07;99871.69;;;15.97;100.00
50430;BME280;36359;41.556;-8.418;2022-11-15T00:34:51;99872.72;;;15.96;100.00
50430;BME280;36359;41.556;-8.418;2022-11-15T00:37:36;99873.72;;;15.88;100.00
50430;BME280;36359;41.556;-8.418;2022-11-15T00:40:20;99866.16;;;15.90;100.00
50430;BME280;36359;41.556;-8.418;2022-11-15T00:43:04;99862.06;;;15.80;100.00
50430;BME280;36359;41.556;-8.418;2022-11-15T00:45:49;99862.78;;;15.88;100.00
50430;BME280;36359;41.556;-8.418;2022-11-15T00:48:33;99859.25;;;15.95;100.00
50430;BME280;36359;41.556;-8.418;2022-11-15T00:51:17;99856.91;;;15.92;100.00
50430;BME280;36359;41.556;-8.418;2022-11-15T00:54:02;99846.69;;;16.00;100.00
50430;BME280;36359;41.556;-8.418;2022-11-15T00:56:46;99838.78;;;15.90;100.00
50430;BME280;36359;41.556;-8.418;2022-11-15T00:59:30;99833.75;;;15.94;100.00
50430;BME280;36359;41.556;-8.418;2022-11-15T01:02:15;99834.03;;;15.99;100.00
50430;BME280;36359;41.556;-8.418;2022-11-15T01:04:59;99829.06;;;16.09;100.00
50430;BME280;36359;41.556;-8.418;2022-11-15T01:07:44;99822.09;;;16.07;100.00
50430;BME280;36359;41.556;-8.418;2022-11-15T01:10:27;99815.78;;;16.06;100.00
50430;BME280;36359;41.556;-8.418;2022-11-15T01:13:12;99810.75;;;16.10;100.00
50430;BME280;36359;41.556;-8.418;2022-11-15T01:15:57;99804.84;;;16.06;100.00
50430;BME280;36359;41.556;-8.418;2022-11-15T01:18:41;99808.22;;;16.08;100.00
50430;BME280;36359;41.556;-8.418;2022-11-15T01:21:26;99805.72;;;16.13;100.00
50430;BME280;36359;41.556;-8.418;2022-11-15T01:24:12;99795.97;;;16.04;100.00
50430;BME280;36359;41.556;-8.418;2022-11-15T01:26:56;99795.56;;;16.07;100.00
50430;BME280;36359;41.556;-8.418;2022-11-15T01:29:40;99800.00;;;16.08;100.00
50430;BME280;36359;41.556;-8.418;2022-11-15T01:32:25;99789.72;;;16.10;100.00
50430;BME280;36359;41.556;-8.418;2022-11-15T01:35:09;99781.31;;;16.12;100.00
50430;BME280;36359;41.556;-8.418;2022-11-15T01:37:53;99777.91;;;16.10;100.00
50430;BME280;36359;41.556;-8.418;2022-11-15T01:40:37;99772.44;;;16.10;100.00
50430;BME280;36359;41.556;-8.418;2022-11-15T01:43:28;99760.59;;;16.03;100.00
50430;BME280;36359;41.556;-8.418;2022-11-15T01:49:13;99745.91;;;16.10;100.00
50430;BME280;36359;41.556;-8.418;2022-11-15T01:52:01;99738.13;;;16.07;100.00
50430;BME280;36359;41.556;-8.418;2022-11-15T01:54:48;99731.38;;;16.03;100.00
50430;BME280;36359;41.556;-8.418;2022-11-15T01:57:34;99740.00;;;16.07;100.00
50430;BME280;36359;41.556;-8.418;2022-11-15T02:00:18;99750.53;;;16.03;100.00
50430;BME280;36359;41.556;-8.418;2022-11-15T02:03:03;99748.47;;;16.12;100.00
50430;BME280;36359;41.556;-8.418;2022-11-15T02:05:47;99740.19;;;16.05;100.00
50430;BME280;36359;41.556;-8.418;2022-11-15T02:08:33;99727.19;;;16.14;100.00
50430;BME280;36359;41.556;-8.418;2022-11-15T02:11:17;99741.13;;;16.19;100.00
50430;BME280;36359;41.556;-8.418;2022-11-15T02:14:02;99737.53;;;16.12;100.00
50430;BME280;36359;41.556;-8.418;2022-11-15T02:17:10;99739.50;;;15.97;100.00
50430;BME280;36359;41.556;-8.418;2022-11-15T02:23:48;99756.78;;;15.97;100.00
50430;BME280;36359;41.556;-8.418;2022-11-15T02:33:03;99711.81;;;16.06;100.00
50430;BME280;36359;41.556;-8.418;2022-11-15T02:36:02;99690.34;;;16.10;100.00
50430;BME280;36359;41.556;-8.418;2022-11-15T02:39:23;99672.44;;;16.07;100.00
50430;BME280;36359;41.556;-8.418;2022-11-15T02:42:14;99664.22;;;16.07;100.00
50430;BME280;36359;41.556;-8.418;2022-11-15T02:45:27;99669.22;;;15.97;100.00
50430;BME280;36359;41.556;-8.418;2022-11-15T02:48:15;99656.03;;;16.07;100.00
50430;BME280;36359;41.556;-8.418;2022-11-15T02:51:01;99639.44;;;16.16;100.00
50430;BME280;36359;41.556;-8.418;2022-11-15T02:53:45;99638.59;;;16.15;100.00
50430;BME280;36359;41.556;-8.418;2022-11-15T02:56:30;99636.84;;;16.01;100.00
50430;BME280;36359;41.556;-8.418;2022-11-15T03:08:26;99614.31;;;16.05;100.00
50430;BME280;36359;41.556;-8.418;2022-11-15T03:11:15;99607.16;;;16.04;100.00
50430;BME280;36359;41.556;-8.418;2022-11-15T03:14:21;99584.88;;;16.07;100.00
50430;BME280;36359;41.556;-8.418;2022-11-15T03:17:18;99596.66;;;16.08;100.00
50430;BME280;36359;41.556;-8.418;2022-11-15T03:20:06;99598.56;;;16.07;100.00
50430;BME280;36359;41.556;-8.418;2022-11-15T03:22:53;99594.75;;;16.08;100.00
50430;BME280;36359;41.556;-8.418;2022-11-15T03:25:46;99591.00;;;16.09;100.00
50430;BME280;36359;41.556;-8.418;2022-11-15T03:29:01;99566.31;;;16.03;100.00
50430;BME280;36359;41.556;-8.418;2022-11-15T03:31:51;99543.81;;;16.07;100.00
50430;BME280;36359;41.556;-8.418;2022-11-15T03:34:41;99553.72;;;16.08;100.00
50430;BME280;36359;41.556;-8.418;2022-11-15T03:37:54;99555.34;;;15.96;100.00
50430;BME280;36359;41.556;-8.418;2022-11-15T03:40:42;99532.81;;;15.94;100.00
50430;BME280;36359;41.556;-8.418;2022-11-15T03:49:15;99545.91;;;16.05;100.00
50430;BME280;36359;41.556;-8.418;2022-11-15T03:52:03;99541.69;;;16.03;100.00
50430;BME280;36359;41.556;-8.418;2022-11-15T03:54:54;99531.22;;;16.06;100.00
50430;BME280;36359;41.556;-8.418;2022-11-15T03:57:39;99533.28;;;16.04;100.00
50430;BME280;36359;41.556;-8.418;2022-11-15T04:00:23;99520.88;;;16.08;100.00
50430;BME280;36359;41.556;-8.418;2022-11-15T04:03:08;99497.91;;;16.03;100.00
50430;BME280;36359;41.556;-8.418;2022-11-15T04:05:52;99511.63;;;16.09;100.00
50430;BME280;36359;41.556;-8.418;2022-11-15T04:08:36;99509.31;;;16.06;100.00
50430;BME280;36359;41.556;-8.418;2022-11-15T04:11:21;99495.81;;;16.05;100.00
50430;BME280;36359;41.556;-8.418;2022-11-15T04:14:05;99491.59;;;15.96;100.00
50430;BME280;36359;41.556;-8.418;2022-11-15T04:16:49;99481.28;;;15.98;100.00
50430;BME280;36359;41.556;-8.418;2022-11-15T04:19:33;99473.69;;;15.93;100.00
50430;BME280;36359;41.556;-8.418;2022-11-15T04:22:57;99480.66;;;16.02;100.00
50430;BME280;36359;41.556;-8.418;2022-11-15T04:26:09;99478.75;;;15.96;100.00
50430;BME280;36359;41.556;-8.418;2022-11-15T04:28:54;99480.69;;;16.09;100.00
50430;BME280;36359;41.556;-8.418;2022-11-15T04:31:57;99471.84;;;16.00;100.00
50430;BME280;36359;41.556;-8.418;2022-11-15T04:34:41;99478.16;;;16.07;100.00
50430;BME280;36359;41.556;-8.418;2022-11-15T04:37:25;99472.09;;;16.19;100.00
50430;BME280;36359;41.556;-8.418;2022-11-15T04:40:10;99461.94;;;16.06;100.00
50430;BME280;36359;41.556;-8.418;2022-11-15T04:42:54;99449.06;;;15.93;100.00
50430;BME280;36359;41.556;-8.418;2022-11-15T04:45:39;99444.22;;;15.88;100.00
50430;BME280;36359;41.556;-8.418;2022-11-15T04:48:24;99454.53;;;15.93;100.00
50430;BME280;36359;41.556;-8.418;2022-11-15T04:51:08;99449.88;;;15.74;100.00
50430;BME280;36359;41.556;-8.418;2022-11-15T04:53:52;99441.88;;;15.79;100.00
50430;BME280;36359;41.556;-8.418;2022-11-15T04:56:37;99439.59;;;15.89;100.00
50430;BME280;36359;41.556;-8.418;2022-11-15T04:59:20;99434.78;;;16.04;100.00
50430;BME280;36359;41.556;-8.418;2022-11-15T05:02:05;99432.22;;;15.89;100.00
50430;BME280;36359;41.556;-8.418;2022-11-15T05:04:49;99424.91;;;16.03;100.00
50430;BME280;36359;41.556;-8.418;2022-11-15T05:07:34;99422.16;;;16.03;100.00
50430;BME280;36359;41.556;-8.418;2022-11-15T05:10:18;99420.06;;;16.05;100.00
50430;BME280;36359;41.556;-8.418;2022-11-15T05:13:02;99423.84;;;16.04;100.00
50430;BME280;36359;41.556;-8.418;2022-11-15T05:15:47;99413.97;;;16.03;100.00
50430;BME280;36359;41.556;-8.418;2022-11-15T05:18:31;99412.06;;;16.04;100.00
50430;BME280;36359;41.556;-8.418;2022-11-15T05:21:16;99398.16;;;15.99;100.00
50430;BME280;36359;41.556;-8.418;2022-11-15T05:24:01;99405.72;;;15.83;100.00
50430;BME280;36359;41.556;-8.418;2022-11-15T05:26:45;99399.81;;;15.93;100.00
50430;BME280;36359;41.556;-8.418;2022-11-15T05:29:29;99393.09;;;16.02;100.00
50430;BME280;36359;41.556;-8.418;2022-11-15T05:32:14;99395.84;;;15.89;100.00
50430;BME280;36359;41.556;-8.418;2022-11-15T05:34:59;99387.63;;;15.96;100.00
50430;BME280;36359;41.556;-8.418;2022-11-15T05:37:44;99378.97;;;15.79;100.00
50430;BME280;36359;41.556;-8.418;2022-11-15T05:40:29;99374.38;;;15.86;100.00
50430;BME280;36359;41.556;-8.418;2022-11-15T05:43:14;99381.09;;;15.90;100.00
50430;BME280;36359;41.556;-8.418;2022-11-15T05:45:59;99370.38;;;15.95;100.00
50430;BME280;36359;41.556;-8.418;2022-11-15T05:48:47;99369.75;;;16.00;100.00
50430;BME280;36359;41.556;-8.418;2022-11-15T05:51:33;99360.88;;;15.91;100.00
50430;BME280;36359;41.556;-8.418;2022-11-15T05:54:19;99359.25;;;16.10;100.00
50430;BME280;36359;41.556;-8.418;2022-11-15T05:57:05;99350.19;;;16.09;100.00
50430;BME280;36359;41.556;-8.418;2022-11-15T05:59:50;99355.84;;;16.08;100.00
50430;BME280;36359;41.556;-8.418;2022-11-15T06:02:35;99363.47;;;16.12;100.00
50430;BME280;36359;41.556;-8.418;2022-11-15T06:05:19;99358.81;;;16.13;100.00
50430;BME280;36359;41.556;-8.418;2022-11-15T06:08:04;99351.00;;;15.97;100.00
50430;BME280;36359;41.556;-8.418;2022-11-15T06:10:48;99344.28;;;15.99;100.00
50430;BME280;36359;41.556;-8.418;2022-11-15T06:13:31;99339.66;;;16.13;100.00
50430;BME280;36359;41.556;-8.418;2022-11-15T06:16:15;99345.13;;;16.20;100.00
50430;BME280;36359;41.556;-8.418;2022-11-15T06:18:59;99336.69;;;16.15;100.00
50430;BME280;36359;41.556;-8.418;2022-11-15T06:21:44;99340.09;;;16.17;100.00
50430;BME280;36359;41.556;-8.418;2022-11-15T06:24:28;99323.88;;;16.15;100.00
50430;BME280;36359;41.556;-8.418;2022-11-15T06:27:12;99324.94;;;16.21;100.00
50430;BME280;36359;41.556;-8.418;2022-11-15T06:29:56;99319.66;;;16.26;100.00
50430;BME280;36359;41.556;-8.418;2022-11-15T06:32:41;99331.25;;;16.28;100.00
50430;BME280;36359;41.556;-8.418;2022-11-15T06:35:25;99316.91;;;16.26;100.00
50430;BME280;36359;41.556;-8.418;2022-11-15T06:38:10;99315.03;;;16.33;100.00
50430;BME280;36359;41.556;-8.418;2022-11-15T06:40:54;99325.34;;;16.38;100.00
50430;BME280;36359;41.556;-8.418;2022-11-15T06:43:39;99324.09;;;16.33;100.00
50430;BME280;36359;41.556;-8.418;2022-11-15T06:46:23;99326.19;;;16.31;100.00
50430;BME280;36359;41.556;-8.418;2022-11-15T06:49:07;99337.13;;;16.31;100.00
50430;BME280;36359;41.556;-8.418;2022-11-15T06:51:52;99315.22;;;16.31;100.00
50430;BME280;36359;41.556;-8.418;2022-11-15T06:54:36;99308.47;;;16.41;100.00
50430;BME280;36359;41.556;-8.418;2022-11-15T06:57:20;99306.81;;;16.40;100.00
50430;BME280;36359;41.556;-8.418;2022-11-15T07:00:05;99301.34;;;16.40;100.00
50430;BME280;36359;41.556;-8.418;2022-11-15T07:02:49;99311.44;;;16.39;100.00
50430;BME280;36359;41.556;-8.418;2022-11-15T07:05:34;99298.16;;;16.49;100.00
50430;BME280;36359;41.556;-8.418;2022-11-15T07:08:18;99282.38;;;16.45;100.00
50430;BME280;36359;41.556;-8.418;2022-11-15T07:11:07;99288.91;;;16.50;100.00
50430;BME280;36359;41.556;-8.418;2022-11-15T07:13:52;99285.31;;;16.56;100.00
50430;BME280;36359;41.556;-8.418;2022-11-15T07:16:36;99286.97;;;16.57;100.00
50430;BME280;36359;41.556;-8.418;2022-11-15T07:19:24;99291.22;;;16.53;100.00
50430;BME280;36359;41.556;-8.418;2022-11-15T07:22:08;99285.72;;;16.53;100.00
50430;BME280;36359;41.556;-8.418;2022-11-15T07:24:52;99294.56;;;16.49;100.00
50430;BME280;36359;41.556;-8.418;2022-11-15T07:27:37;99334.59;;;16.43;100.00
50430;BME280;36359;41.556;-8.418;2022-11-15T07:30:21;99403.06;;;16.30;100.00
50430;BME280;36359;41.556;-8.418;2022-11-15T07:33:06;99410.34;;;15.83;100.00
50430;BME280;36359;41.556;-8.418;2022-11-15T07:35:50;99415.47;;;15.64;100.00
50430;BME280;36359;41.556;-8.418;2022-11-15T07:38:38;99424.50;;;15.58;100.00
50430;BME280;36359;41.556;-8.418;2022-11-15T07:41:22;99433.34;;;15.60;100.00
50430;BME280;36359;41.556;-8.418;2022-11-15T07:44:04;99448.72;;;15.61;100.00
50430;BME280;36359;41.556;-8.418;2022-11-15T07:46:48;99444.72;;;15.57;100.00
50430;BME280;36359;41.556;-8.418;2022-11-15T07:49:32;99461.75;;;15.59;100.00
50430;BME280;36359;41.556;-8.418;2022-11-15T07:52:16;99467.06;;;15.67;100.00
50430;BME280;36359;41.556;-8.418;2022-11-15T07:55:00;99473.59;;;15.73;100.00
50430;BME280;36359;41.556;-8.418;2022-11-15T07:57:45;99485.56;;;15.65;100.00
50430;BME280;36359;41.556;-8.418;2022-11-15T08:00:30;99485.31;;;15.60;100.00
50430;BME280;36359;41.556;-8.418;2022-11-15T08:03:16;99490.78;;;15.60;100.00
50430;BME280;36359;41.556;-8.418;2022-11-15T08:06:00;99495.19;;;15.61;100.00
50430;BME280;36359;41.556;-8.418;2022-11-15T08:08:46;99490.19;;;15.65;100.00
50430;BME280;36359;41.556;-8.418;2022-11-15T08:11:31;99493.50;;;15.60;100.00
50430;BME280;36359;41.556;-8.418;2022-11-15T08:14:15;99497.22;;;15.46;100.00
50430;BME280;36359;41.556;-8.418;2022-11-15T08:16:59;99500.03;;;15.59;100.00
50430;BME280;36359;41.556;-8.418;2022-11-15T08:19:46;99496.13;;;15.69;100.00
50430;BME280;36359;41.556;-8.418;2022-11-15T08:22:33;99495.50;;;15.73;100.00
50430;BME280;36359;41.556;-8.418;2022-11-15T08:25:18;99491.22;;;15.64;100.00
50430;BME280;36359;41.556;-8.418;2022-11-15T08:28:05;99489.25;;;15.51;100.00
50430;BME280;36359;41.556;-8.418;2022-11-15T08:30:49;99497.56;;;15.30;100.00
50430;BME280;36359;41.556;-8.418;2022-11-15T08:33:35;99500.06;;;15.31;100.00
50430;BME280;36359;41.556;-8.418;2022-11-15T08:36:19;99510.25;;;15.09;100.00
50430;BME280;36359;41.556;-8.418;2022-11-15T08:39:03;99505.25;;;15.19;100.00
50430;BME280;36359;41.556;-8.418;2022-11-15T08:41:49;99505.63;;;15.10;100.00
50430;BME280;36359;41.556;-8.418;2022-11-15T08:44:26;99518.84;;;15.06;100.00
50430;BME280;36359;41.556;-8.418;2022-11-15T08:47:13;99522.28;;;15.15;100.00
50430;BME280;36359;41.556;-8.418;2022-11-15T08:49:57;99529.09;;;15.32;100.00
50430;BME280;36359;41.556;-8.418;2022-11-15T08:52:42;99509.00;;;15.12;100.00
50430;BME280;36359;41.556;-8.418;2022-11-15T08:55:26;99513.38;;;15.06;100.00
50430;BME280;36359;41.556;-8.418;2022-11-15T08:58:11;99533.91;;;15.02;100.00
50430;BME280;36359;41.556;-8.418;2022-11-15T09:00:55;99540.97;;;14.90;100.00
50430;BME280;36359;41.556;-8.418;2022-11-15T09:03:40;99543.38;;;14.78;100.00
50430;BME280;36359;41.556;-8.418;2022-11-15T09:06:24;99540.00;;;14.97;100.00
50430;BME280;36359;41.556;-8.418;2022-11-15T09:09:09;99553.84;;;14.96;100.00
50430;BME280;36359;41.556;-8.418;2022-11-15T09:11:53;99561.75;;;14.91;100.00
50430;BME280;36359;41.556;-8.418;2022-11-15T09:14:37;99570.25;;;14.74;100.00
50430;BME280;36359;41.556;-8.418;2022-11-15T09:17:21;99570.09;;;14.61;100.00
50430;BME280;36359;41.556;-8.418;2022-11-15T09:20:06;99579.72;;;15.00;100.00
50430;BME280;36359;41.556;-8.418;2022-11-15T09:22:50;99594.53;;;15.12;100.00
50430;BME280;36359;41.556;-8.418;2022-11-15T09:25:35;99597.31;;;15.19;100.00
50430;BME280;36359;41.556;-8.418;2022-11-15T09:28:19;99595.69;;;15.25;100.00
50430;BME280;36359;41.556;-8.418;2022-11-15T09:31:05;99610.28;;;15.10;100.00
50430;BME280;36359;41.556;-8.418;2022-11-15T09:33:50;99611.84;;;14.98;100.00
50430;BME280;36359;41.556;-8.418;2022-11-15T09:36:34;99622.44;;;15.08;100.00
50430;BME280;36359;41.556;-8.418;2022-11-15T09:39:19;99622.75;;;15.19;100.00
50430;BME280;36359;41.556;-8.418;2022-11-15T09:45:32;99633.84;;;14.90;100.00
50430;BME280;36359;41.556;-8.418;2022-11-15T09:48:54;99626.03;;;14.65;100.00
50430;BME280;36359;41.556;-8.418;2022-11-15T09:51:41;99619.63;;;14.58;100.00
50430;BME280;36359;41.556;-8.418;2022-11-15T09:54:35;99611.59;;;14.71;100.00
50430;BME280;36359;41.556;-8.418;2022-11-15T09:57:12;99628.38;;;14.68;100.00
50430;BME280;36359;41.556;-8.418;2022-11-15T10:05:28;99633.69;;;14.25;100.00
50430;BME280;36359;41.556;-8.418;2022-11-15T10:11:00;99646.00;;;14.51;100.00
50430;BME280;36359;41.556;-8.418;2022-11-15T10:13:30;99650.97;;;14.62;100.00
50430;BME280;36359;41.556;-8.418;2022-11-15T10:21:59;99675.19;;;14.87;100.00
50430;BME280;36359;41.556;-8.418;2022-11-15T10:24:30;99675.97;;;15.02;100.00
50430;BME280;36359;41.556;-8.418;2022-11-15T10:27:00;99681.56;;;15.37;100.00
50430;BME280;36359;41.556;-8.418;2022-11-15T10:29:26;99683.50;;;15.43;100.00
50430;BME280;36359;41.556;-8.418;2022-11-15T10:31:52;99672.88;;;15.55;100.00
50430;BME280;36359;41.556;-8.418;2022-11-15T10:34:20;99663.84;;;15.82;100.00
50430;BME280;36359;41.556;-8.418;2022-11-15T10:36:54;99664.47;;;15.78;100.00
50430;BME280;36359;41.556;-8.418;2022-11-15T10:39:20;99674.56;;;15.77;100.00
50430;BME280;36359;41.556;-8.418;2022-11-15T10:41:46;99675.47;;;15.91;100.00
50430;BME280;36359;41.556;-8.418;2022-11-15T10:44:25;99676.16;;;16.00;100.00
50430;BME280;36359;41.556;-8.418;2022-11-15T10:49:22;99673.97;;;16.17;100.00
50430;BME280;36359;41.556;-8.418;2022-11-15T10:54:27;99663.97;;;16.37;100.00
50430;BME280;36359;41.556;-8.418;2022-11-15T10:56:59;99669.25;;;16.45;100.00
50430;BME280;36359;41.556;-8.418;2022-11-15T10:59:29;99669.31;;;16.58;100.00
50430;BME280;36359;41.556;-8.418;2022-11-15T11:01:56;99659.88;;;16.68;100.00
50430;BME280;36359;41.556;-8.418;2022-11-15T11:04:22;99669.41;;;16.85;100.00
50430;BME280;36359;41.556;-8.418;2022-11-15T11:06:53;99671.13;;;16.86;100.00
50430;BME280;36359;41.556;-8.418;2022-11-15T11:09:35;99673.88;;;16.86;100.00
50430;BME280;36359;41.556;-8.418;2022-11-15T11:12:03;99675.84;;;16.64;100.00
50430;BME280;36359;41.556;-8.418;2022-11-15T11:17:23;99662.97;;;17.13;100.00
50430;BME280;36359;41.556;-8.418;2022-11-15T11:22:44;99681.72;;;17.16;100.00
50430;BME280;36359;41.556;-8.418;2022-11-15T11:30:23;99663.59;;;17.15;100.00
50430;BME280;36359;41.556;-8.418;2022-11-15T11:46:36;99618.03;;;17.00;100.00
50430;BME280;36359;41.556;-8.418;2022-11-15T11:49:15;99612.78;;;17.12;100.00
50430;BME280;36359;41.556;-8.418;2022-11-15T11:52:10;99624.16;;;17.16;99.87
50430;BME280;36359;41.556;-8.418;2022-11-15T11:54:47;99621.00;;;17.19;100.00
50430;BME280;36359;41.556;-8.418;2022-11-15T11:57:27;99613.63;;;17.13;99.54
50430;BME280;36359;41.556;-8.418;2022-11-15T12:00:03;99604.13;;;17.29;98.06
50430;BME280;36359;41.556;-8.418;2022-11-15T12:02:43;99610.22;;;17.44;97.84
50430;BME280;36359;41.556;-8.418;2022-11-15T12:05:16;99605.59;;;17.51;97.54
50430;BME280;36359;41.556;-8.418;2022-11-15T12:07:45;99596.28;;;17.59;95.62
50430;BME280;36359;41.556;-8.418;2022-11-15T12:10:17;99586.38;;;17.71;92.45
50430;BME280;36359;41.556;-8.418;2022-11-15T12:12:55;99597.78;;;17.68;92.64
50430;BME280;36359;41.556;-8.418;2022-11-15T12:15:27;99595.84;;;17.82;91.45
50430;BME280;36359;41.556;-8.418;2022-11-15T12:17:56;99597.97;;;17.86;90.64
50430;BME280;36359;41.556;-8.418;2022-11-15T12:20:25;99602.19;;;17.89;90.39
50430;BME280;36359;41.556;-8.418;2022-11-15T12:23:12;99601.13;;;17.70;89.53
50430;BME280;36359;41.556;-8.418;2022-11-15T12:28:15;99602.00;;;17.44;92.25
50430;BME280;36359;41.556;-8.418;2022-11-15T12:31:13;99601.78;;;17.32;93.10
50430;BME280;36359;41.556;-8.418;2022-11-15T12:33:43;99602.84;;;17.58;91.31
50430;BME280;36359;41.556;-8.418;2022-11-15T12:41:18;99616.13;;;17.41;89.06
50430;BME280;36359;41.556;-8.418;2022-11-15T12:43:45;99626.88;;;16.34;96.62
50430;BME280;36359;41.556;-8.418;2022-11-15T12:51:22;99624.44;;;15.20;100.00
50430;BME280;36359;41.556;-8.418;2022-11-15T12:53:48;99631.44;;;15.51;100.00
50430;BME280;36359;41.556;-8.418;2022-11-15T12:58:57;99630.25;;;15.88;100.00
50430;BME280;36359;41.556;-8.418;2022-11-15T13:06:53;99624.78;;;16.30;100.00
50430;BME280;36359;41.556;-8.418;2022-11-15T13:12:10;99637.84;;;16.41;100.00
50430;BME280;36359;41.556;-8.418;2022-11-15T13:22:43;99630.59;;;16.68;100.00
50430;BME280;36359;41.556;-8.418;2022-11-15T13:33:30;99620.75;;;16.94;99.56
50430;BME280;36359;41.556;-8.418;2022-11-15T13:35:59;99618.88;;;17.34;97.16
50430;BME280;36359;41.556;-8.418;2022-11-15T13:38:29;99607.28;;;17.52;95.97
50430;BME280;36359;41.556;-8.418;2022-11-15T13:40:57;99608.94;;;17.66;94.87
50430;BME280;36359;41.556;-8.418;2022-11-15T13:43:32;99599.03;;;17.79;93.92
50430;BME280;36359;41.556;-8.418;2022-11-15T13:48:45;99603.66;;;17.91;93.67
50430;BME280;36359;41.556;-8.418;2022-11-15T13:51:20;99612.94;;;17.90;93.21
50430;BME280;36359;41.556;-8.418;2022-11-15T13:53:55;99613.97;;;17.96;92.70
50430;BME280;36359;41.556;-8.418;2022-11-15T13:56:22;99611.41;;;18.08;92.20
50430;BME280;36359;41.556;-8.418;2022-11-15T13:58:48;99617.13;;;18.06;91.70
50430;BME280;36359;41.556;-8.418;2022-11-15T14:01:16;99611.38;;;18.21;91.29
50430;BME280;36359;41.556;-8.418;2022-11-15T14:03:55;99615.59;;;18.17;91.28
50430;BME280;36359;41.556;-8.418;2022-11-15T14:06:25;99617.91;;;18.20;90.57
50430;BME280;36359;41.556;-8.418;2022-11-15T14:11:37;99603.84;;;17.97;91.62
50430;BME280;36359;41.556;-8.418;2022-11-15T14:16:37;99606.41;;;17.85;91.10
50430;BME280;36359;41.556;-8.418;2022-11-15T14:19:04;99611.06;;;17.84;90.70
50430;BME280;36359;41.556;-8.418;2022-11-15T14:21:31;99610.00;;;17.85;92.68
50430;BME280;36359;41.556;-8.418;2022-11-15T14:24:17;99616.06;;;18.07;92.05
50430;BME280;36359;41.556;-8.418;2022-11-15T14:26:43;99604.88;;;18.09;92.66
50430;BME280;36359;41.556;-8.418;2022-11-15T14:29:26;99600.84;;;18.11;91.45
50430;BME280;36359;41.556;-8.418;2022-11-15T14:31:54;99592.16;;;18.21;90.43
50430;BME280;36359;41.556;-8.418;2022-11-15T14:34:32;99603.81;;;18.10;90.30
50430;BME280;36359;41.556;-8.418;2022-11-15T14:36:57;99594.50;;;18.11;90.62
50430;BME280;36359;41.556;-8.418;2022-11-15T14:39:23;99592.44;;;18.06;90.42
50430;BME280;36359;41.556;-8.418;2022-11-15T14:41:50;99592.44;;;18.06;89.80
50430;BME280;36359;41.556;-8.418;2022-11-15T14:46:46;99595.56;;;18.10;90.68
50430;BME280;36359;41.556;-8.418;2022-11-15T14:49:13;99593.22;;;18.13;90.50
50430;BME280;36359;41.556;-8.418;2022-11-15T14:51:39;99590.09;;;17.97;89.38
50430;BME280;36359;41.556;-8.418;2022-11-15T14:54:05;99600.31;;;17.83;86.10
50430;BME280;36359;41.556;-8.418;2022-11-15T14:56:31;99599.47;;;17.56;86.34
50430;BME280;36359;41.556;-8.418;2022-11-15T14:58:56;99604.75;;;17.37;86.99
50430;BME280;36359;41.556;-8.418;2022-11-15T15:01:25;99606.88;;;17.22;85.46
50430;BME280;36359;41.556;-8.418;2022-11-15T15:03:52;99603.50;;;17.07;90.45
50430;BME280;36359;41.556;-8.418;2022-11-15T15:06:21;99601.16;;;17.17;91.81
50430;BME280;36359;41.556;-8.418;2022-11-15T15:08:47;99613.41;;;17.14;89.53
50430;BME280;36359;41.556;-8.418;2022-11-15T15:11:24;99613.84;;;17.18;93.73
50430;BME280;36359;41.556;-8.418;2022-11-15T15:13:54;99617.44;;;17.38;90.34
50430;BME280;36359;41.556;-8.418;2022-11-15T15:16:23;99604.53;;;17.32;91.59
50430;BME280;36359;41.556;-8.418;2022-11-15T15:18:50;99605.59;;;17.31;92.47
50430;BME280;36359;41.556;-8.418;2022-11-15T15:21:24;99612.78;;;17.25;90.48
50430;BME280;36359;41.556;-8.418;2022-11-15T15:23:51;99614.03;;;17.23;92.14
50430;BME280;36359;41.556;-8.418;2022-11-15T15:26:17;99623.53;;;17.27;89.69
50430;BME280;36359;41.556;-8.418;2022-11-15T15:28:43;99618.25;;;17.25;93.46
50430;BME280;36359;41.556;-8.418;2022-11-15T15:31:09;99626.25;;;17.20;89.73
50430;BME280;36359;41.556;-8.418;2022-11-15T15:33:35;99636.16;;;16.95;93.62
50430;BME280;36359;41.556;-8.418;2022-11-15T15:36:02;99628.59;;;17.03;94.33
50430;BME280;36359;41.556;-8.418;2022-11-15T15:38:28;99625.84;;;17.03;95.28
50430;BME280;36359;41.556;-8.418;2022-11-15T15:40:53;99621.19;;;17.04;95.48
50430;BME280;36359;41.556;-8.418;2022-11-15T15:43:20;99632.13;;;16.84;94.82
50430;BME280;36359;41.556;-8.418;2022-11-15T15:45:46;99626.88;;;16.96;95.26
50430;BME280;36359;41.556;-8.418;2022-11-15T15:48:13;99627.06;;;16.88;94.34
50430;BME280;36359;41.556;-8.418;2022-11-15T15:50:39;99632.25;;;16.63;92.05
50430;BME280;36359;41.556;-8.418;2022-11-15T15:53:05;99635.28;;;16.81;95.72
50430;BME280;36359;41.556;-8.418;2022-11-15T15:55:31;99624.97;;;16.90;98.43
50430;BME280;36359;41.556;-8.418;2022-11-15T15:57:57;99623.06;;;16.84;95.13
50430;BME280;36359;41.556;-8.418;2022-11-15T16:00:24;99622.84;;;16.85;95.65